sensor_id;sensor_type;location;lat;lon;timestamp;P1;durP1;ratioP1;P2;durP2;ratioP2
35646;SDS011;28680;45.642;13.756;2023-12-20T00:01:00;8.23;;;2.50;;
35646;SDS011;28680;45.642;13.756;2023-12-20T00:03:26;5.07;;;2.53;;
35646;SDS011;28680;45.642;13.756;2023-12-20T00:05:51;6.03;;;2.35;;
35646;SDS011;28680;45.642;13.756;2023-12-20T00:08:17;5.97;;;2.40;;
35646;SDS011;28680;45.642;13.756;2023-12-20T00:10:43;8.45;;;2.60;;
35646;SDS011;28680;45.642;13.756;2023-12-20T00:13:10;4.45;;;2.10;;
35646;SDS011;28680;45.642;13.756;2023-12-20T00:15:36;4.13;;;2.40;;
35646;SDS011;28680;45.642;13.756;2023-12-20T00:18:02;3.92;;;2.28;;
35646;SDS011;28680;45.642;13.756;2023-12-20T00:20:28;5.88;;;2.70;;
35646;SDS011;28680;45.642;13.756;2023-12-20T00:22:55;5.32;;;2.88;;
35646;SDS011;28680;45.642;13.756;2023-12-20T00:25:23;6.97;;;2.60;;
35646;SDS011;28680;45.642;13.756;2023-12-20T00:27:49;7.32;;;2.90;;
35646;SDS011;28680;45.642;13.756;2023-12-20T00:30:15;6.32;;;3.28;;
35646;SDS011;28680;45.642;13.756;2023-12-20T00:32:41;5.45;;;2.95;;
35646;SDS011;28680;45.642;13.756;2023-12-20T00:35:21;5.97;;;3.05;;
35646;SDS011;28680;45.642;13.756;2023-12-20T00:37:46;6.38;;;2.65;;
35646;SDS011;28680;45.642;13.756;2023-12-20T00:40:12;7.40;;;3.40;;
35646;SDS011;28680;45.642;13.756;2023-12-20T00:42:38;7.00;;;3.50;;
35646;SDS011;28680;45.642;13.756;2023-12-20T00:45:04;8.57;;;4.15;;
35646;SDS011;28680;45.642;13.756;2023-12-20T00:47:31;7.50;;;3.88;;
35646;SDS011;28680;45.642;13.756;2023-12-20T00:49:57;8.40;;;3.85;;
35646;SDS011;28680;45.642;13.756;2023-12-20T00:52:23;7.30;;;3.42;;
35646;SDS011;28680;45.642;13.756;2023-12-20T00:54:49;10.02;;;3.53;;
35646;SDS011;28680;45.642;13.756;2023-12-20T00:57:15;6.53;;;3.20;;
35646;SDS011;28680;45.642;13.756;2023-12-20T00:59:40;7.88;;;3.22;;
35646;SDS011;28680;45.642;13.756;2023-12-20T01:02:06;5.03;;;3.05;;
35646;SDS011;28680;45.642;13.756;2023-12-20T01:04:32;5.07;;;2.97;;
35646;SDS011;28680;45.642;13.756;2023-12-20T01:06:58;3.92;;;2.50;;
35646;SDS011;28680;45.642;13.756;2023-12-20T01:09:24;10.25;;;3.10;;
35646;SDS011;28680;45.642;13.756;2023-12-20T01:11:51;4.88;;;2.80;;
35646;SDS011;28680;45.642;13.756;2023-12-20T01:14:18;5.50;;;2.90;;
35646;SDS011;28680;45.642;13.756;2023-12-20T01:16:44;7.55;;;3.05;;
35646;SDS011;28680;45.642;13.756;2023-12-20T01:19:10;6.53;;;2.92;;
35646;SDS011;28680;45.642;13.756;2023-12-20T01:21:35;7.03;;;2.78;;
35646;SDS011;28680;45.642;13.756;2023-12-20T01:24:01;6.22;;;2.95;;
35646;SDS011;28680;45.642;13.756;2023-12-20T01:26:27;5.80;;;2.90;;
35646;SDS011;28680;45.642;13.756;2023-12-20T01:28:53;5.03;;;2.80;;
35646;SDS011;28680;45.642;13.756;2023-12-20T01:31:19;6.95;;;2.72;;
35646;SDS011;28680;45.642;13.756;2023-12-20T01:33:45;10.73;;;3.08;;
35646;SDS011;28680;45.642;13.756;2023-12-20T01:36:11;6.03;;;2.70;;
35646;SDS011;28680;45.642;13.756;2023-12-20T01:38:37;5.93;;;2.85;;
35646;SDS011;28680;45.642;13.756;2023-12-20T01:41:03;6.65;;;2.70;;
35646;SDS011;28680;45.642;13.756;2023-12-20T01:43:29;4.60;;;2.50;;
35646;SDS011;28680;45.642;13.756;2023-12-20T01:45:56;4.45;;;2.70;;
35646;SDS011;28680;45.642;13.756;2023-12-20T01:48:23;6.65;;;3.15;;
35646;SDS011;28680;45.642;13.756;2023-12-20T01:50:49;6.50;;;3.00;;
35646;SDS011;28680;45.642;13.756;2023-12-20T01:53:16;5.07;;;2.75;;
35646;SDS011;28680;45.642;13.756;2023-12-20T01:55:43;4.45;;;2.67;;
35646;SDS011;28680;45.642;13.756;2023-12-20T01:58:10;5.45;;;2.83;;
35646;SDS011;28680;45.642;13.756;2023-12-20T02:00:37;5.93;;;2.92;;
35646;SDS011;28680;45.642;13.756;2023-12-20T02:03:03;5.57;;;2.47;;
35646;SDS011;28680;45.642;13.756;2023-12-20T02:05:30;7.20;;;2.97;;
35646;SDS011;28680;45.642;13.756;2023-12-20T02:07:57;6.47;;;3.05;;
35646;SDS011;28680;45.642;13.756;2023-12-20T02:10:23;5.88;;;3.65;;
35646;SDS011;28680;45.642;13.756;2023-12-20T02:12:49;4.85;;;2.95;;
35646;SDS011;28680;45.642;13.756;2023-12-20T02:15:15;6.57;;;3.28;;
35646;SDS011;28680;45.642;13.756;2023-12-20T02:17:41;6.40;;;3.63;;
35646;SDS011;28680;45.642;13.756;2023-12-20T02:20:08;6.53;;;3.38;;
35646;SDS011;28680;45.642;13.756;2023-12-20T02:22:34;6.05;;;3.10;;
35646;SDS011;28680;45.642;13.756;2023-12-20T02:25:00;7.20;;;3.20;;
35646;SDS011;28680;45.642;13.756;2023-12-20T02:27:26;6.38;;;3.28;;
35646;SDS011;28680;45.642;13.756;2023-12-20T02:29:53;8.88;;;3.40;;
35646;SDS011;28680;45.642;13.756;2023-12-20T02:32:19;8.40;;;3.47;;
35646;SDS011;28680;45.642;13.756;2023-12-20T02:34:48;8.77;;;3.20;;
35646;SDS011;28680;45.642;13.756;2023-12-20T02:37:14;5.30;;;2.88;;
35646;SDS011;28680;45.642;13.756;2023-12-20T02:39:40;7.10;;;3.35;;
35646;SDS011;28680;45.642;13.756;2023-12-20T02:42:05;10.55;;;3.40;;
35646;SDS011;28680;45.642;13.756;2023-12-20T02:44:31;5.18;;;2.55;;
35646;SDS011;28680;45.642;13.756;2023-12-20T02:46:57;7.55;;;3.42;;
35646;SDS011;28680;45.642;13.756;2023-12-20T02:49:23;6.88;;;3.67;;
35646;SDS011;28680;45.642;13.756;2023-12-20T02:51:48;5.40;;;3.15;;
35646;SDS011;28680;45.642;13.756;2023-12-20T02:54:14;7.60;;;3.85;;
35646;SDS011;28680;45.642;13.756;2023-12-20T02:56:40;5.55;;;3.60;;
35646;SDS011;28680;45.642;13.756;2023-12-20T02:59:06;4.70;;;2.90;;
35646;SDS011;28680;45.642;13.756;2023-12-20T03:01:33;6.55;;;3.95;;
35646;SDS011;28680;45.642;13.756;2023-12-20T03:03:59;4.55;;;2.97;;
35646;SDS011;28680;45.642;13.756;2023-12-20T03:06:26;5.78;;;3.30;;
35646;SDS011;28680;45.642;13.756;2023-12-20T03:08:52;6.30;;;3.20;;
35646;SDS011;28680;45.642;13.756;2023-12-20T03:11:17;5.80;;;3.15;;
35646;SDS011;28680;45.642;13.756;2023-12-20T03:13:43;5.60;;;2.95;;
35646;SDS011;28680;45.642;13.756;2023-12-20T03:16:09;6.90;;;3.50;;
35646;SDS011;28680;45.642;13.756;2023-12-20T03:18:36;9.63;;;3.28;;
35646;SDS011;28680;45.642;13.756;2023-12-20T03:21:02;5.07;;;3.22;;
35646;SDS011;28680;45.642;13.756;2023-12-20T03:23:29;6.75;;;3.40;;
35646;SDS011;28680;45.642;13.756;2023-12-20T03:25:56;6.93;;;3.75;;
35646;SDS011;28680;45.642;13.756;2023-12-20T03:28:21;6.95;;;3.50;;
35646;SDS011;28680;45.642;13.756;2023-12-20T03:30:48;7.32;;;3.70;;
35646;SDS011;28680;45.642;13.756;2023-12-20T03:33:14;6.13;;;3.30;;
35646;SDS011;28680;45.642;13.756;2023-12-20T03:35:40;6.82;;;3.33;;
35646;SDS011;28680;45.642;13.756;2023-12-20T03:38:06;6.22;;;3.20;;
35646;SDS011;28680;45.642;13.756;2023-12-20T03:40:32;5.65;;;3.10;;
35646;SDS011;28680;45.642;13.756;2023-12-20T03:42:58;4.93;;;2.85;;
35646;SDS011;28680;45.642;13.756;2023-12-20T03:45:24;7.68;;;3.75;;
35646;SDS011;28680;45.642;13.756;2023-12-20T03:47:50;6.07;;;2.83;;
35646;SDS011;28680;45.642;13.756;2023-12-20T03:50:20;5.13;;;2.90;;
35646;SDS011;28680;45.642;13.756;2023-12-20T03:52:49;5.97;;;2.80;;
35646;SDS011;28680;45.642;13.756;2023-12-20T03:55:15;5.78;;;3.10;;
35646;SDS011;28680;45.642;13.756;2023-12-20T03:57:41;7.97;;;3.10;;
35646;SDS011;28680;45.642;13.756;2023-12-20T04:00:07;5.78;;;2.45;;
35646;SDS011;28680;45.642;13.756;2023-12-20T04:02:40;4.10;;;2.33;;
35646;SDS011;28680;45.642;13.756;2023-12-20T04:05:06;7.03;;;2.70;;
35646;SDS011;28680;45.642;13.756;2023-12-20T04:07:33;5.22;;;2.67;;
35646;SDS011;28680;45.642;13.756;2023-12-20T04:10:00;5.38;;;2.72;;
35646;SDS011;28680;45.642;13.756;2023-12-20T04:12:26;6.30;;;3.53;;
35646;SDS011;28680;45.642;13.756;2023-12-20T04:14:53;7.20;;;3.08;;
35646;SDS011;28680;45.642;13.756;2023-12-20T04:17:19;5.00;;;2.88;;
35646;SDS011;28680;45.642;13.756;2023-12-20T04:19:45;6.00;;;3.38;;
35646;SDS011;28680;45.642;13.756;2023-12-20T04:22:11;6.13;;;3.15;;
35646;SDS011;28680;45.642;13.756;2023-12-20T04:24:37;7.68;;;3.50;;
35646;SDS011;28680;45.642;13.756;2023-12-20T04:27:03;8.25;;;3.42;;
35646;SDS011;28680;45.642;13.756;2023-12-20T04:29:29;6.70;;;3.65;;
35646;SDS011;28680;45.642;13.756;2023-12-20T04:31:54;8.15;;;3.58;;
35646;SDS011;28680;45.642;13.756;2023-12-20T04:34:23;12.02;;;3.97;;
35646;SDS011;28680;45.642;13.756;2023-12-20T04:36:48;8.18;;;3.10;;
35646;SDS011;28680;45.642;13.756;2023-12-20T04:39:14;5.88;;;3.45;;
35646;SDS011;28680;45.642;13.756;2023-12-20T04:41:40;7.28;;;3.65;;
35646;SDS011;28680;45.642;13.756;2023-12-20T04:44:06;5.85;;;3.30;;
35646;SDS011;28680;45.642;13.756;2023-12-20T04:46:32;5.05;;;3.20;;
35646;SDS011;28680;45.642;13.756;2023-12-20T04:48:57;6.35;;;3.00;;
35646;SDS011;28680;45.642;13.756;2023-12-20T04:51:23;4.35;;;2.83;;
35646;SDS011;28680;45.642;13.756;2023-12-20T04:53:49;5.72;;;2.70;;
35646;SDS011;28680;45.642;13.756;2023-12-20T04:56:15;4.57;;;2.83;;
35646;SDS011;28680;45.642;13.756;2023-12-20T04:58:41;5.30;;;3.00;;
35646;SDS011;28680;45.642;13.756;2023-12-20T05:01:08;4.65;;;2.70;;
35646;SDS011;28680;45.642;13.756;2023-12-20T05:03:34;4.82;;;2.60;;
35646;SDS011;28680;45.642;13.756;2023-12-20T05:06:01;4.70;;;2.90;;
35646;SDS011;28680;45.642;13.756;2023-12-20T05:08:26;4.93;;;3.28;;
35646;SDS011;28680;45.642;13.756;2023-12-20T05:10:53;6.15;;;3.20;;
35646;SDS011;28680;45.642;13.756;2023-12-20T05:13:20;6.45;;;3.15;;
35646;SDS011;28680;45.642;13.756;2023-12-20T05:15:46;5.55;;;3.45;;
35646;SDS011;28680;45.642;13.756;2023-12-20T05:18:12;7.05;;;3.17;;
35646;SDS011;28680;45.642;13.756;2023-12-20T05:20:38;6.13;;;3.55;;
35646;SDS011;28680;45.642;13.756;2023-12-20T05:23:06;9.40;;;3.53;;
35646;SDS011;28680;45.642;13.756;2023-12-20T05:25:32;8.00;;;3.50;;
35646;SDS011;28680;45.642;13.756;2023-12-20T05:27:58;6.18;;;3.35;;
35646;SDS011;28680;45.642;13.756;2023-12-20T05:30:24;7.45;;;3.90;;
35646;SDS011;28680;45.642;13.756;2023-12-20T05:32:49;5.57;;;3.35;;
35646;SDS011;28680;45.642;13.756;2023-12-20T05:35:16;6.05;;;2.90;;
35646;SDS011;28680;45.642;13.756;2023-12-20T05:37:42;4.45;;;2.92;;
35646;SDS011;28680;45.642;13.756;2023-12-20T05:40:08;4.25;;;2.63;;
35646;SDS011;28680;45.642;13.756;2023-12-20T05:42:37;3.75;;;2.53;;
35646;SDS011;28680;45.642;13.756;2023-12-20T05:45:04;6.60;;;2.83;;
35646;SDS011;28680;45.642;13.756;2023-12-20T05:47:31;4.40;;;2.50;;
35646;SDS011;28680;45.642;13.756;2023-12-20T05:49:57;4.43;;;2.35;;
35646;SDS011;28680;45.642;13.756;2023-12-20T05:52:22;4.30;;;2.60;;
35646;SDS011;28680;45.642;13.756;2023-12-20T05:54:48;4.55;;;2.67;;
35646;SDS011;28680;45.642;13.756;2023-12-20T05:57:14;4.88;;;2.42;;
35646;SDS011;28680;45.642;13.756;2023-12-20T05:59:40;4.35;;;2.50;;
35646;SDS011;28680;45.642;13.756;2023-12-20T06:02:06;4.25;;;2.55;;
35646;SDS011;28680;45.642;13.756;2023-12-20T06:04:32;4.55;;;2.50;;
35646;SDS011;28680;45.642;13.756;2023-12-20T06:06:58;5.40;;;3.08;;
35646;SDS011;28680;45.642;13.756;2023-12-20T06:09:24;9.23;;;3.33;;
35646;SDS011;28680;45.642;13.756;2023-12-20T06:11:52;4.68;;;2.90;;
35646;SDS011;28680;45.642;13.756;2023-12-20T06:14:17;5.75;;;2.60;;
35646;SDS011;28680;45.642;13.756;2023-12-20T06:16:44;5.20;;;3.00;;
35646;SDS011;28680;45.642;13.756;2023-12-20T06:19:11;7.40;;;5.05;;
35646;SDS011;28680;45.642;13.756;2023-12-20T06:21:36;10.48;;;4.18;;
35646;SDS011;28680;45.642;13.756;2023-12-20T06:24:02;8.38;;;4.20;;
35646;SDS011;28680;45.642;13.756;2023-12-20T06:26:28;6.80;;;3.60;;
35646;SDS011;28680;45.642;13.756;2023-12-20T06:28:54;5.88;;;3.42;;
35646;SDS011;28680;45.642;13.756;2023-12-20T06:31:20;7.25;;;3.83;;
35646;SDS011;28680;45.642;13.756;2023-12-20T06:33:46;10.18;;;3.70;;
35646;SDS011;28680;45.642;13.756;2023-12-20T06:36:12;5.93;;;3.40;;
35646;SDS011;28680;45.642;13.756;2023-12-20T06:38:38;8.35;;;4.75;;
35646;SDS011;28680;45.642;13.756;2023-12-20T06:41:05;10.35;;;5.05;;
35646;SDS011;28680;45.642;13.756;2023-12-20T06:43:31;9.20;;;4.40;;
35646;SDS011;28680;45.642;13.756;2023-12-20T06:45:57;13.77;;;5.93;;
35646;SDS011;28680;45.642;13.756;2023-12-20T06:48:25;9.55;;;5.03;;
35646;SDS011;28680;45.642;13.756;2023-12-20T06:50:51;9.88;;;4.93;;
35646;SDS011;28680;45.642;13.756;2023-12-20T06:53:17;8.02;;;4.97;;
35646;SDS011;28680;45.642;13.756;2023-12-20T06:55:42;13.15;;;5.20;;
35646;SDS011;28680;45.642;13.756;2023-12-20T06:58:08;9.77;;;4.32;;
35646;SDS011;28680;45.642;13.756;2023-12-20T07:00:34;8.13;;;3.90;;
35646;SDS011;28680;45.642;13.756;2023-12-20T07:03:00;8.60;;;3.78;;
35646;SDS011;28680;45.642;13.756;2023-12-20T07:05:26;9.85;;;3.90;;
35646;SDS011;28680;45.642;13.756;2023-12-20T07:07:51;7.25;;;3.90;;
35646;SDS011;28680;45.642;13.756;2023-12-20T07:10:17;12.32;;;3.30;;
35646;SDS011;28680;45.642;13.756;2023-12-20T07:12:43;12.15;;;4.22;;
35646;SDS011;28680;45.642;13.756;2023-12-20T07:15:09;8.30;;;4.07;;
35646;SDS011;28680;45.642;13.756;2023-12-20T07:17:37;7.60;;;4.07;;
35646;SDS011;28680;45.642;13.756;2023-12-20T07:20:03;8.38;;;4.20;;
35646;SDS011;28680;45.642;13.756;2023-12-20T07:22:30;8.10;;;4.45;;
35646;SDS011;28680;45.642;13.756;2023-12-20T07:24:59;12.73;;;5.07;;
35646;SDS011;28680;45.642;13.756;2023-12-20T07:27:25;10.88;;;4.80;;
35646;SDS011;28680;45.642;13.756;2023-12-20T07:29:51;10.18;;;5.03;;
35646;SDS011;28680;45.642;13.756;2023-12-20T07:32:17;7.53;;;3.70;;
35646;SDS011;28680;45.642;13.756;2023-12-20T07:34:43;9.02;;;4.60;;
35646;SDS011;28680;45.642;13.756;2023-12-20T07:37:09;10.55;;;5.13;;
35646;SDS011;28680;45.642;13.756;2023-12-20T07:39:41;11.93;;;5.88;;
35646;SDS011;28680;45.642;13.756;2023-12-20T07:42:07;11.18;;;5.80;;
35646;SDS011;28680;45.642;13.756;2023-12-20T07:44:34;10.45;;;5.95;;
35646;SDS011;28680;45.642;13.756;2023-12-20T07:47:03;10.75;;;6.45;;
35646;SDS011;28680;45.642;13.756;2023-12-20T07:49:30;12.20;;;6.75;;
35646;SDS011;28680;45.642;13.756;2023-12-20T07:51:56;13.10;;;6.32;;
35646;SDS011;28680;45.642;13.756;2023-12-20T07:54:21;13.25;;;6.57;;
35646;SDS011;28680;45.642;13.756;2023-12-20T07:56:48;13.82;;;6.03;;
35646;SDS011;28680;45.642;13.756;2023-12-20T07:59:14;10.60;;;5.68;;
35646;SDS011;28680;45.642;13.756;2023-12-20T08:01:40;14.63;;;7.10;;
35646;SDS011;28680;45.642;13.756;2023-12-20T08:04:07;9.43;;;4.57;;
35646;SDS011;28680;45.642;13.756;2023-12-20T08:06:33;13.30;;;4.53;;
35646;SDS011;28680;45.642;13.756;2023-12-20T08:08:59;14.32;;;5.13;;
35646;SDS011;28680;45.642;13.756;2023-12-20T08:11:24;15.50;;;5.43;;
35646;SDS011;28680;45.642;13.756;2023-12-20T08:13:50;28.55;;;10.65;;
35646;SDS011;28680;45.642;13.756;2023-12-20T08:16:16;14.02;;;5.25;;
35646;SDS011;28680;45.642;13.756;2023-12-20T08:18:43;13.88;;;5.13;;
35646;SDS011;28680;45.642;13.756;2023-12-20T08:21:09;10.07;;;5.43;;
35646;SDS011;28680;45.642;13.756;2023-12-20T08:23:35;11.23;;;5.88;;
35646;SDS011;28680;45.642;13.756;2023-12-20T08:26:19;12.02;;;5.53;;
35646;SDS011;28680;45.642;13.756;2023-12-20T08:28:49;14.25;;;5.85;;
35646;SDS011;28680;45.642;13.756;2023-12-20T08:31:16;12.63;;;5.85;;
35646;SDS011;28680;45.642;13.756;2023-12-20T08:33:45;15.32;;;5.75;;
35646;SDS011;28680;45.642;13.756;2023-12-20T08:36:13;16.80;;;7.50;;
35646;SDS011;28680;45.642;13.756;2023-12-20T08:38:39;21.20;;;8.07;;
35646;SDS011;28680;45.642;13.756;2023-12-20T08:41:05;21.92;;;7.80;;
35646;SDS011;28680;45.642;13.756;2023-12-20T08:43:31;20.27;;;7.88;;
35646;SDS011;28680;45.642;13.756;2023-12-20T08:45:58;21.95;;;7.60;;
35646;SDS011;28680;45.642;13.756;2023-12-20T08:48:24;18.10;;;7.90;;
35646;SDS011;28680;45.642;13.756;2023-12-20T08:50:50;16.73;;;7.55;;
35646;SDS011;28680;45.642;13.756;2023-12-20T08:53:17;21.05;;;7.75;;
35646;SDS011;28680;45.642;13.756;2023-12-20T08:55:44;19.05;;;7.45;;
35646;SDS011;28680;45.642;13.756;2023-12-20T08:58:10;16.13;;;7.22;;
35646;SDS011;28680;45.642;13.756;2023-12-20T09:00:36;24.23;;;7.78;;
35646;SDS011;28680;45.642;13.756;2023-12-20T09:03:02;22.35;;;8.32;;
35646;SDS011;28680;45.642;13.756;2023-12-20T09:05:28;24.75;;;8.48;;
35646;SDS011;28680;45.642;13.756;2023-12-20T09:07:54;19.52;;;8.25;;
35646;SDS011;28680;45.642;13.756;2023-12-20T09:10:20;21.98;;;8.30;;
35646;SDS011;28680;45.642;13.756;2023-12-20T09:12:50;24.88;;;8.52;;
35646;SDS011;28680;45.642;13.756;2023-12-20T09:15:19;23.88;;;8.20;;
35646;SDS011;28680;45.642;13.756;2023-12-20T09:17:45;22.30;;;8.10;;
35646;SDS011;28680;45.642;13.756;2023-12-20T09:20:10;24.73;;;9.38;;
35646;SDS011;28680;45.642;13.756;2023-12-20T09:22:38;23.55;;;7.82;;
35646;SDS011;28680;45.642;13.756;2023-12-20T09:25:05;20.80;;;6.65;;
35646;SDS011;28680;45.642;13.756;2023-12-20T09:27:31;16.17;;;6.72;;
35646;SDS011;28680;45.642;13.756;2023-12-20T10:12:22;21.55;;;7.15;;
35646;SDS011;28680;45.642;13.756;2023-12-20T10:14:47;18.38;;;7.88;;
35646;SDS011;28680;45.642;13.756;2023-12-20T10:17:13;15.88;;;7.72;;
35646;SDS011;28680;45.642;13.756;2023-12-20T10:19:39;15.00;;;7.00;;
35646;SDS011;28680;45.642;13.756;2023-12-20T10:22:05;16.35;;;7.28;;
35646;SDS011;28680;45.642;13.756;2023-12-20T10:24:31;15.77;;;7.10;;
35646;SDS011;28680;45.642;13.756;2023-12-20T10:29:35;16.77;;;7.93;;
35646;SDS011;28680;45.642;13.756;2023-12-20T10:34:50;20.05;;;7.50;;
35646;SDS011;28680;45.642;13.756;2023-12-20T10:37:17;16.40;;;9.35;;
35646;SDS011;28680;45.642;13.756;2023-12-20T10:39:43;15.60;;;9.00;;
35646;SDS011;28680;45.642;13.756;2023-12-20T10:42:12;22.98;;;9.00;;
35646;SDS011;28680;45.642;13.756;2023-12-20T10:44:40;35.47;;;12.05;;
35646;SDS011;28680;45.642;13.756;2023-12-20T10:47:05;16.10;;;7.80;;
35646;SDS011;28680;45.642;13.756;2023-12-20T10:49:33;9.15;;;5.47;;
35646;SDS011;28680;45.642;13.756;2023-12-20T10:52:02;13.07;;;5.55;;
35646;SDS011;28680;45.642;13.756;2023-12-20T10:54:30;12.77;;;5.50;;
35646;SDS011;28680;45.642;13.756;2023-12-20T10:56:57;13.05;;;6.65;;
35646;SDS011;28680;45.642;13.756;2023-12-20T10:59:23;22.15;;;7.85;;
35646;SDS011;28680;45.642;13.756;2023-12-20T11:01:51;14.50;;;5.38;;
35646;SDS011;28680;45.642;13.756;2023-12-20T11:04:24;9.55;;;4.22;;
35646;SDS011;28680;45.642;13.756;2023-12-20T11:06:56;8.45;;;3.50;;
35646;SDS011;28680;45.642;13.756;2023-12-20T11:09:33;9.82;;;3.90;;
35646;SDS011;28680;45.642;13.756;2023-12-20T11:14:39;9.43;;;5.20;;
35646;SDS011;28680;45.642;13.756;2023-12-20T11:17:15;8.98;;;4.22;;
35646;SDS011;28680;45.642;13.756;2023-12-20T11:22:28;9.40;;;4.65;;
35646;SDS011;28680;45.642;13.756;2023-12-20T11:25:05;9.73;;;4.63;;
35646;SDS011;28680;45.642;13.756;2023-12-20T11:27:36;11.05;;;5.38;;
35646;SDS011;28680;45.642;13.756;2023-12-20T11:30:06;10.50;;;5.18;;
35646;SDS011;28680;45.642;13.756;2023-12-20T11:32:34;17.60;;;8.27;;
35646;SDS011;28680;45.642;13.756;2023-12-20T11:35:16;17.42;;;6.57;;
35646;SDS011;28680;45.642;13.756;2023-12-20T11:37:44;12.85;;;5.60;;
35646;SDS011;28680;45.642;13.756;2023-12-20T11:40:16;16.60;;;6.43;;
35646;SDS011;28680;45.642;13.756;2023-12-20T11:42:49;16.00;;;6.95;;
35646;SDS011;28680;45.642;13.756;2023-12-20T11:45:20;16.15;;;5.90;;
35646;SDS011;28680;45.642;13.756;2023-12-20T11:47:49;12.32;;;6.40;;
35646;SDS011;28680;45.642;13.756;2023-12-20T11:50:16;15.85;;;6.70;;
35646;SDS011;28680;45.642;13.756;2023-12-20T11:52:43;12.52;;;6.32;;
35646;SDS011;28680;45.642;13.756;2023-12-20T11:55:09;13.63;;;5.88;;
35646;SDS011;28680;45.642;13.756;2023-12-20T11:57:35;12.30;;;6.15;;
35646;SDS011;28680;45.642;13.756;2023-12-20T12:00:02;10.75;;;5.65;;
35646;SDS011;28680;45.642;13.756;2023-12-20T12:02:37;18.95;;;6.45;;
35646;SDS011;28680;45.642;13.756;2023-12-20T12:05:03;13.32;;;5.80;;
35646;SDS011;28680;45.642;13.756;2023-12-20T12:07:33;13.25;;;6.00;;
35646;SDS011;28680;45.642;13.756;2023-12-20T12:09:59;11.73;;;5.60;;
35646;SDS011;28680;45.642;13.756;2023-12-20T12:12:25;17.98;;;6.00;;
35646;SDS011;28680;45.642;13.756;2023-12-20T12:14:53;10.45;;;6.07;;
35646;SDS011;28680;45.642;13.756;2023-12-20T12:17:19;14.43;;;6.10;;
35646;SDS011;28680;45.642;13.756;2023-12-20T12:19:45;15.57;;;6.75;;
35646;SDS011;28680;45.642;13.756;2023-12-20T12:22:12;14.50;;;6.78;;
35646;SDS011;28680;45.642;13.756;2023-12-20T12:24:41;11.30;;;5.95;;
35646;SDS011;28680;45.642;13.756;2023-12-20T12:27:14;13.02;;;6.80;;
35646;SDS011;28680;45.642;13.756;2023-12-20T12:29:40;15.85;;;7.25;;
35646;SDS011;28680;45.642;13.756;2023-12-20T12:32:07;11.75;;;7.15;;
35646;SDS011;28680;45.642;13.756;2023-12-20T12:34:34;14.60;;;6.18;;
35646;SDS011;28680;45.642;13.756;2023-12-20T12:37:00;19.60;;;9.13;;
35646;SDS011;28680;45.642;13.756;2023-12-20T12:39:26;20.30;;;7.78;;
35646;SDS011;28680;45.642;13.756;2023-12-20T12:41:53;15.63;;;6.90;;
35646;SDS011;28680;45.642;13.756;2023-12-20T12:44:19;13.57;;;7.22;;
35646;SDS011;28680;45.642;13.756;2023-12-20T12:46:45;19.33;;;8.10;;
35646;SDS011;28680;45.642;13.756;2023-12-20T12:49:11;15.40;;;7.97;;
35646;SDS011;28680;45.642;13.756;2023-12-20T12:51:38;19.00;;;9.18;;
35646;SDS011;28680;45.642;13.756;2023-12-20T12:54:03;20.20;;;10.05;;
35646;SDS011;28680;45.642;13.756;2023-12-20T12:56:29;21.23;;;10.70;;
35646;SDS011;28680;45.642;13.756;2023-12-20T12:58:55;18.52;;;9.70;;
35646;SDS011;28680;45.642;13.756;2023-12-20T13:01:23;18.95;;;9.52;;
35646;SDS011;28680;45.642;13.756;2023-12-20T13:03:49;20.77;;;9.63;;
35646;SDS011;28680;45.642;13.756;2023-12-20T13:06:14;20.35;;;9.32;;
35646;SDS011;28680;45.642;13.756;2023-12-20T13:08:40;22.40;;;10.20;;
35646;SDS011;28680;45.642;13.756;2023-12-20T13:11:07;18.02;;;9.48;;
35646;SDS011;28680;45.642;13.756;2023-12-20T13:13:32;19.05;;;8.75;;
35646;SDS011;28680;45.642;13.756;2023-12-20T13:15:58;22.00;;;9.48;;
35646;SDS011;28680;45.642;13.756;2023-12-20T13:18:26;18.75;;;9.05;;
35646;SDS011;28680;45.642;13.756;2023-12-20T13:20:51;20.98;;;8.90;;
35646;SDS011;28680;45.642;13.756;2023-12-20T13:23:17;28.20;;;9.25;;
35646;SDS011;28680;45.642;13.756;2023-12-20T13:25:49;22.55;;;7.95;;
35646;SDS011;28680;45.642;13.756;2023-12-20T13:28:15;20.33;;;9.05;;
35646;SDS011;28680;45.642;13.756;2023-12-20T13:30:41;22.40;;;10.95;;
35646;SDS011;28680;45.642;13.756;2023-12-20T13:33:07;18.83;;;9.18;;
35646;SDS011;28680;45.642;13.756;2023-12-20T13:35:33;20.60;;;9.02;;
35646;SDS011;28680;45.642;13.756;2023-12-20T13:37:59;21.50;;;8.50;;
35646;SDS011;28680;45.642;13.756;2023-12-20T13:40:25;20.33;;;8.82;;
35646;SDS011;28680;45.642;13.756;2023-12-20T13:42:51;14.75;;;7.97;;
35646;SDS011;28680;45.642;13.756;2023-12-20T13:45:17;14.65;;;7.47;;
35646;SDS011;28680;45.642;13.756;2023-12-20T13:47:43;24.33;;;7.30;;
35646;SDS011;28680;45.642;13.756;2023-12-20T13:50:09;12.27;;;7.03;;
35646;SDS011;28680;45.642;13.756;2023-12-20T13:52:35;16.33;;;6.53;;
35646;SDS011;28680;45.642;13.756;2023-12-20T13:55:01;13.30;;;7.38;;
35646;SDS011;28680;45.642;13.756;2023-12-20T13:57:27;16.80;;;7.32;;
35646;SDS011;28680;45.642;13.756;2023-12-20T13:59:55;12.82;;;7.43;;
35646;SDS011;28680;45.642;13.756;2023-12-20T14:02:23;14.80;;;6.78;;
35646;SDS011;28680;45.642;13.756;2023-12-20T14:04:48;16.95;;;7.82;;
35646;SDS011;28680;45.642;13.756;2023-12-20T14:07:14;14.88;;;7.35;;
35646;SDS011;28680;45.642;13.756;2023-12-20T14:09:40;12.20;;;7.38;;
35646;SDS011;28680;45.642;13.756;2023-12-20T14:12:14;18.25;;;8.35;;
35646;SDS011;28680;45.642;13.756;2023-12-20T14:14:40;21.35;;;9.88;;
35646;SDS011;28680;45.642;13.756;2023-12-20T14:17:06;18.55;;;10.10;;
35646;SDS011;28680;45.642;13.756;2023-12-20T14:19:34;19.55;;;10.32;;
35646;SDS011;28680;45.642;13.756;2023-12-20T14:22:00;21.15;;;10.00;;
35646;SDS011;28680;45.642;13.756;2023-12-20T14:24:27;22.23;;;10.77;;
35646;SDS011;28680;45.642;13.756;2023-12-20T14:26:56;23.10;;;10.63;;
35646;SDS011;28680;45.642;13.756;2023-12-20T14:29:23;26.13;;;9.80;;
35646;SDS011;28680;45.642;13.756;2023-12-20T14:31:49;20.33;;;10.35;;
35646;SDS011;28680;45.642;13.756;2023-12-20T14:34:15;21.10;;;9.93;;
35646;SDS011;28680;45.642;13.756;2023-12-20T14:36:41;26.40;;;9.57;;
35646;SDS011;28680;45.642;13.756;2023-12-20T14:39:07;15.02;;;9.25;;
35646;SDS011;28680;45.642;13.756;2023-12-20T14:41:33;16.15;;;7.82;;
35646;SDS011;28680;45.642;13.756;2023-12-20T14:43:59;12.30;;;6.10;;
35646;SDS011;28680;45.642;13.756;2023-12-20T14:46:25;11.48;;;5.78;;
35646;SDS011;28680;45.642;13.756;2023-12-20T14:48:51;14.85;;;5.85;;
35646;SDS011;28680;45.642;13.756;2023-12-20T14:51:17;10.98;;;5.28;;
35646;SDS011;28680;45.642;13.756;2023-12-20T14:53:43;7.47;;;4.82;;
35646;SDS011;28680;45.642;13.756;2023-12-20T14:56:08;10.25;;;4.93;;
35646;SDS011;28680;45.642;13.756;2023-12-20T14:58:34;7.60;;;4.60;;
35646;SDS011;28680;45.642;13.756;2023-12-20T15:01:02;11.75;;;4.90;;
35646;SDS011;28680;45.642;13.756;2023-12-20T15:03:28;9.32;;;4.78;;
35646;SDS011;28680;45.642;13.756;2023-12-20T15:05:55;9.93;;;4.70;;
35646;SDS011;28680;45.642;13.756;2023-12-20T15:08:24;9.07;;;4.80;;
35646;SDS011;28680;45.642;13.756;2023-12-20T15:10:50;9.55;;;5.00;;
35646;SDS011;28680;45.642;13.756;2023-12-20T15:13:16;10.80;;;6.03;;
35646;SDS011;28680;45.642;13.756;2023-12-20T15:15:42;11.23;;;5.75;;
35646;SDS011;28680;45.642;13.756;2023-12-20T15:18:07;10.45;;;5.68;;